Time;durP1;ratioP1;P1;durP2;ratioP2;P2;SDS_P1;SDS_P2;PMS_P1;PMS_P2;Temp;Humidity;BMP_temperature;BMP_pressure;BME280_temperature;BME280_humidity;BME280_pressure;Samples;Min_cycle;Max_cycle;Signal;HPM_P1;HPM_P2
2021/09/03 00:00:26;;;;;;;6.18;4.78;;;;;;;14.61;52.44;101876.59;7989245;28;20400;-69
2021/09/03 00:04:16;;;;;;;11.35;4.95;;;;;;;14.58;52.43;101873.31;7992649;28;20030;-69
2021/09/03 00:08:07;;;;;;;8.60;5.28;;;;;;;14.54;52.53;101872.69;7978130;28;20049;-69
2021/09/03 00:11:57;;;;;;;8.55;5.38;;;;;;;14.51;52.70;101875.50;7990002;28;20035;-69
2021/09/03 00:15:48;;;;;;;8.57;5.85;;;;;;;14.47;52.76;101879.31;8000517;28;20124;-69
2021/09/03 00:19:38;;;;;;;7.20;5.15;;;;;;;14.44;52.90;101879.53;7993489;28;20177;-69
2021/09/03 00:23:29;;;;;;;8.77;5.72;;;;;;;14.41;52.87;101879.69;7989720;28;20039;-69
2021/09/03 00:27:34;;;;;;;8.60;5.10;;;;;;;14.35;52.78;101872.16;7991541;28;20036;-69
2021/09/03 00:31:25;;;;;;;11.63;5.45;;;;;;;14.34;52.80;101876.59;7991587;28;20547;-69
2021/09/03 00:35:16;;;;;;;8.18;4.95;;;;;;;14.29;52.68;101865.50;7991366;28;20518;-69
2021/09/03 00:39:06;;;;;;;5.53;4.57;;;;;;;14.26;52.71;101865.69;7986284;28;20041;-69
2021/09/03 00:42:57;;;;;;;7.95;5.00;;;;;;;14.25;52.90;101868.44;7991286;28;20055;-69
2021/09/03 00:46:47;;;;;;;6.93;4.60;;;;;;;14.20;52.94;101857.31;7992878;28;20034;-68
2021/09/03 00:50:40;;;;;;;8.05;5.20;;;;;;;14.16;52.99;101848.75;7992980;28;20033;-69
2021/09/03 00:54:31;;;;;;;9.23;4.90;;;;;;;14.14;52.83;101852.44;7992485;28;20136;-69
2021/09/03 00:58:23;;;;;;;9.88;5.03;;;;;;;14.10;52.82;101853.56;7992402;28;20035;-69
2021/09/03 01:02:14;;;;;;;8.13;4.45;;;;;;;14.01;52.95;101846.28;7991932;28;20735;-69
2021/09/03 01:06:05;;;;;;;6.72;4.90;;;;;;;13.99;53.04;101840.22;7992159;28;20474;-69
2021/09/03 01:09:56;;;;;;;6.70;4.65;;;;;;;13.98;53.32;101834.09;7991828;28;20047;-69
2021/09/03 01:13:46;;;;;;;7.68;4.93;;;;;;;13.95;53.21;101830.81;7982879;28;20026;-69
2021/09/03 01:17:39;;;;;;;9.30;4.97;;;;;;;13.92;53.20;101833.66;7991983;28;20644;-69
2021/09/03 01:21:29;;;;;;;7.90;4.75;;;;;;;13.88;53.11;101830.38;7991610;28;20079;-69
2021/09/03 01:25:20;;;;;;;5.47;4.00;;;;;;;13.75;53.23;101814.47;7990645;28;20083;-69
2021/09/03 01:29:12;;;;;;;6.63;4.78;;;;;;;13.81;53.01;101831.69;7991487;28;20768;-69
2021/09/03 01:33:03;;;;;;;5.65;4.05;;;;;;;13.77;53.26;101824.91;7986088;28;20464;-69
2021/09/03 01:36:54;;;;;;;6.68;4.28;;;;;;;13.71;53.21;101825.31;7990772;28;20590;-69
2021/09/03 01:40:44;;;;;;;7.75;4.35;;;;;;;13.67;53.17;101823.84;7989952;28;20025;-69
2021/09/03 01:44:35;;;;;;;8.20;4.90;;;;;;;13.64;53.20;101819.56;7989436;28;20021;-69
2021/09/03 01:48:25;;;;;;;6.97;4.57;;;;;;;13.60;53.25;101818.06;7989726;28;20589;-69
2021/09/03 01:52:16;;;;;;;8.50;5.82;;;;;;;13.57;53.24;101815.63;7989126;28;20045;-69
2021/09/03 01:56:07;;;;;;;9.93;5.35;;;;;;;13.53;53.34;101810.66;7989598;28;20043;-69
2021/09/03 01:59:57;;;;;;;9.82;6.30;;;;;;;13.51;53.63;101804.59;7990059;28;20752;-69
2021/09/03 02:03:48;;;;;;;12.07;6.70;;;;;;;13.47;53.48;101806.56;7975738;28;20636;-69
2021/09/03 02:07:38;;;;;;;9.68;6.43;;;;;;;13.34;53.44;101789.84;7988351;28;20045;-69
2021/09/03 02:11:29;;;;;;;7.70;5.80;;;;;;;13.38;53.61;101793.97;7988901;28;20032;-69
2021/09/03 02:15:19;;;;;;;8.80;5.82;;;;;;;13.37;53.73;101795.75;7989500;28;20029;-69
2021/09/03 02:19:10;;;;;;;8.05;5.18;;;;;;;13.34;53.70;101793.34;7989269;28;20687;-69
2021/09/03 02:23:01;;;;;;;7.35;5.43;;;;;;;13.31;53.61;101788.22;7989432;28;20103;-69
2021/09/03 02:26:51;;;;;;;11.77;5.38;;;;;;;13.29;53.49;101795.41;7996158;28;20470;-69
2021/09/03 02:30:43;;;;;;;11.30;6.32;;;;;;;13.26;53.61;101792.94;7996582;28;20033;-69
2021/09/03 02:34:33;;;;;;;7.05;4.95;;;;;;;13.22;53.90;101793.25;7996551;28;20674;-69
2021/09/03 02:38:24;;;;;;;7.80;5.68;;;;;;;13.20;53.74;101792.47;7991701;28;20023;-69
2021/09/03 02:42:15;;;;;;;6.95;5.88;;;;;;;13.18;53.75;101786.47;7998188;28;20033;-68
2021/09/03 02:46:06;;;;;;;7.35;5.38;;;;;;;13.14;53.83;101783.16;7995709;28;20152;-68
2021/09/03 02:49:56;;;;;;;9.48;6.15;;;;;;;13.11;53.74;101782.50;7987908;28;20485;-69
2021/09/03 02:53:47;;;;;;;8.52;5.75;;;;;;;13.05;53.84;101781.09;7995719;28;20155;-69
2021/09/03 02:57:37;;;;;;;10.30;6.47;;;;;;;13.02;53.76;101783.91;7995981;28;20151;-69
2021/09/03 03:01:28;;;;;;;8.68;6.07;;;;;;;13.02;53.86;101789.19;7990760;28;20413;-69
2021/09/03 03:05:21;;;;;;;7.65;5.13;;;;;;;12.99;53.88;101779.69;7995538;28;20033;-69
2021/09/03 03:09:12;;;;;;;13.68;5.35;;;;;;;12.97;53.98;101778.09;7995465;28;20408;-68
2021/09/03 03:13:19;;;;;;;7.30;4.95;;;;;;;12.93;53.96;101769.50;7995798;28;20481;-69
2021/09/03 03:17:09;;;;;;;9.55;5.95;;;;;;;12.91;53.91;101775.81;7997354;28;20025;-69
2021/09/03 03:21:00;;;;;;;7.07;4.85;;;;;;;12.86;54.04;101768.19;7995163;28;20131;-69
2021/09/03 03:24:51;;;;;;;8.90;5.03;;;;;;;12.84;53.94;101761.34;7994505;28;20021;-68
2021/09/03 03:28:41;;;;;;;10.43;5.25;;;;;;;12.82;53.89;101760.56;7993593;28;20043;-68
2021/09/03 03:32:32;;;;;;;8.63;5.15;;;;;;;12.77;54.07;101755.56;7990041;28;20033;-68
2021/09/03 03:36:22;;;;;;;7.15;5.07;;;;;;;12.75;54.07;101753.97;7993696;28;20041;-68
2021/09/03 03:40:15;;;;;;;5.18;4.38;;;;;;;12.72;53.98;101757.66;7987394;28;20044;-68
2021/09/03 03:44:06;;;;;;;7.60;4.38;;;;;;;12.66;53.84;101744.84;7994128;28;20040;-69
2021/09/03 03:47:56;;;;;;;8.77;5.00;;;;;;;12.66;54.16;101749.25;7992841;28;20079;-68
2021/09/03 03:51:47;;;;;;;6.00;4.05;;;;;;;12.59;54.12;101740.91;7992785;28;20074;-69
2021/09/03 03:55:38;;;;;;;9.07;4.53;;;;;;;12.56;53.81;101743.66;7992621;28;20105;-69
2021/09/03 03:59:29;;;;;;;6.30;4.00;;;;;;;12.57;54.11;101745.38;7992485;28;20037;-68
2021/09/03 04:03:19;;;;;;;8.27;3.88;;;;;;;12.53;54.01;101744.72;7983680;28;20064;-68
2021/09/03 04:07:10;;;;;;;8.00;3.78;;;;;;;12.50;54.16;101744.91;7987135;28;20046;-68
2021/09/03 04:11:01;;;;;;;5.00;4.05;;;;;;;12.48;54.28;101733.59;7992255;28;20047;-68
2021/09/03 04:14:51;;;;;;;5.47;3.80;;;;;;;12.45;54.33;101735.56;7991813;28;20486;-69
2021/09/03 04:18:42;;;;;;;5.57;4.00;;;;;;;12.40;54.16;101735.84;7993500;28;20025;-69
2021/09/03 04:22:33;;;;;;;5.68;4.05;;;;;;;12.39;54.27;101728.88;7989767;28;20024;-69
2021/09/03 04:26:23;;;;;;;5.32;3.90;;;;;;;12.36;54.19;101731.69;7990482;28;20599;-68
2021/09/03 04:30:14;;;;;;;7.90;4.22;;;;;;;12.33;54.41;101728.41;7990142;28;20072;-68
2021/09/03 04:34:05;;;;;;;6.10;4.00;;;;;;;12.24;54.28;101719.25;7987947;28;20052;-68
2021/09/03 04:37:55;;;;;;;5.82;3.70;;;;;;;12.27;54.27;101726.16;7990376;28;20803;-69
2021/09/03 04:41:46;;;;;;;7.70;5.28;;;;;;;12.25;54.47;101738.56;7992569;28;20043;-69
2021/09/03 04:45:36;;;;;;;5.18;3.92;;;;;;;12.22;54.40;101736.09;7992325;28;20402;-68
2021/09/03 04:49:27;;;;;;;5.50;3.83;;;;;;;12.19;54.43;101742.38;7991550;28;20033;-69
2021/09/03 04:53:18;;;;;;;5.40;4.20;;;;;;;12.18;54.51;101737.22;7991302;28;20084;-68
2021/09/03 04:57:09;;;;;;;11.15;4.68;;;;;;;12.16;54.56;101733.81;7991804;28;20040;-69
2021/09/03 05:01:00;;;;;;;9.70;4.28;;;;;;;12.14;54.41;101733.06;7984953;28;20039;-68
2021/09/03 05:04:50;;;;;;;5.25;3.83;;;;;;;12.11;54.60;101728.81;7998292;28;20409;-68
2021/09/03 05:08:41;;;;;;;4.72;3.22;;;;;;;12.11;54.58;101731.44;7984348;28;20029;-68
2021/09/03 05:12:31;;;;;;;7.20;4.32;;;;;;;12.08;54.64;101724.59;7990687;28;20488;-68
2021/09/03 05:16:22;;;;;;;6.78;3.85;;;;;;;12.10;54.57;101728.94;7991240;28;20029;-67
2021/09/03 05:20:13;;;;;;;11.55;3.42;;;;;;;12.08;54.66;101721.97;8007286;28;20044;-68
2021/09/03 05:24:03;;;;;;;6.03;3.53;;;;;;;12.07;54.79;101720.25;8006551;28;20029;-68
2021/09/03 05:27:54;;;;;;;5.43;3.75;;;;;;;12.12;54.71;101732.31;8006704;28;20044;-67
2021/09/03 05:31:45;;;;;;;4.82;3.58;;;;;;;12.14;54.80;101735.72;8006170;28;20090;-68
2021/09/03 05:35:35;;;;;;;4.30;3.45;;;;;;;12.14;55.01;101730.44;7992380;28;20484;-68
2021/09/03 05:39:27;;;;;;;4.30;3.33;;;;;;;12.17;55.19;101739.00;7985333;28;20445;-68
2021/09/03 05:43:20;;;;;;;5.68;3.55;;;;;;;12.22;55.11;101749.28;7975136;28;20041;-68
2021/09/03 05:47:11;;;;;;;5.05;3.80;;;;;;;12.26;55.19;101741.09;7974655;28;20414;-67
2021/09/03 05:51:01;;;;;;;4.88;3.55;;;;;;;12.31;55.28;101739.03;7975188;28;20093;-68
2021/09/03 05:54:52;;;;;;;5.18;3.83;;;;;;;12.36;55.37;101739.59;7975383;28;20118;-68
2021/09/03 05:58:43;;;;;;;5.75;3.60;;;;;;;12.40;55.29;101737.63;7973128;28;20041;-68
2021/09/03 06:02:33;;;;;;;5.78;4.10;;;;;;;12.44;55.29;101734.72;7974648;28;20112;-68
2021/09/03 06:06:24;;;;;;;6.75;4.43;;;;;;;12.48;55.35;101738.84;7974667;28;20559;-68
2021/09/03 06:10:15;;;;;;;7.22;4.38;;;;;;;12.56;55.29;101735.75;7972779;28;20120;-68
2021/09/03 06:14:07;;;;;;;6.53;4.55;;;;;;;12.63;55.64;101729.22;7973730;28;20076;-68
2021/09/03 06:17:58;;;;;;;6.13;4.28;;;;;;;12.77;55.78;101721.28;7974586;28;20658;-68
2021/09/03 06:21:48;;;;;;;5.68;3.70;;;;;;;13.06;56.00;101727.38;7974933;28;20037;-67
2021/09/03 06:25:39;;;;;;;4.97;4.07;;;;;;;13.36;56.56;101729.88;7990873;28;20042;-68
2021/09/03 06:29:40;;;;;;;6.35;4.18;;;;;;;13.64;56.48;101719.25;7985866;28;20051;-68
2021/09/03 06:33:32;;;;;;;8.55;5.00;;;;;;;14.27;56.45;101726.47;7973024;28;20502;-68
2021/09/03 06:37:25;;;;;;;6.72;4.60;;;;;;;15.22;56.77;101726.81;7973919;28;20047;-68
2021/09/03 06:41:16;;;;;;;6.15;4.60;;;;;;;16.28;56.76;101720.72;8001573;28;20497;-68
2021/09/03 06:45:07;;;;;;;6.93;4.97;;;;;;;17.33;56.23;101724.69;8005571;28;20074;-68
2021/09/03 06:48:58;;;;;;;8.98;5.13;;;;;;;18.37;55.79;101730.16;8005611;28;20401;-68
2021/09/03 06:52:48;;;;;;;10.38;5.85;;;;;;;19.29;55.01;101721.19;8005592;28;20503;-68
2021/09/03 06:56:39;;;;;;;9.20;5.28;;;;;;;20.12;54.29;101724.19;8005344;28;20029;-68
2021/09/03 07:00:30;;;;;;;8.15;5.65;;;;;;;20.87;53.50;101725.94;8005133;28;20564;-68
2021/09/03 07:04:20;;;;;;;7.32;5.10;;;;;;;21.40;52.86;101712.72;8005045;28;20110;-68
2021/09/03 07:08:11;;;;;;;7.32;4.65;;;;;;;21.92;52.46;101716.38;8005192;28;20374;-68
2021/09/03 07:12:01;;;;;;;6.50;4.88;;;;;;;22.33;52.02;101714.81;8008603;28;20029;-68
2021/09/03 07:15:52;;;;;;;7.55;4.85;;;;;;;22.60;51.42;101707.66;7983071;28;20104;-68
2021/09/03 07:19:43;;;;;;;7.03;5.53;;;;;;;22.95;51.38;101715.53;7979057;28;20050;-68
2021/09/03 07:23:34;;;;;;;7.00;4.85;;;;;;;23.21;51.05;101718.13;7978894;28;20662;-68
2021/09/03 07:27:25;;;;;;;8.00;5.90;;;;;;;23.47;50.48;101718.88;7978609;28;20556;-68
2021/09/03 07:31:16;;;;;;;7.30;4.85;;;;;;;23.76;49.66;101713.06;7986137;28;20490;-69
2021/09/03 07:35:07;;;;;;;8.30;5.28;;;;;;;24.06;48.90;101708.84;7994710;28;20024;-69
2021/09/03 07:38:58;;;;;;;9.05;5.32;;;;;;;24.45;48.18;101704.44;7986900;28;20033;-68
2021/09/03 07:42:48;;;;;;;7.43;5.03;;;;;;;24.83;47.55;101707.31;7978147;28;20441;-68
2021/09/03 07:46:39;;;;;;;8.82;6.05;;;;;;;25.16;46.45;101700.78;7978088;28;20056;-68
2021/09/03 07:50:32;;;;;;;7.80;5.30;;;;;;;25.51;45.21;101697.56;7978183;28;20405;-68
2021/09/03 07:54:23;;;;;;;7.45;5.30;;;;;;;25.80;44.30;101696.84;7977770;28;20072;-68
2021/09/03 07:58:13;;;;;;;10.73;5.65;;;;;;;26.08;44.28;101691.72;7977679;28;20033;-68
2021/09/03 08:02:04;;;;;;;9.10;5.15;;;;;;;26.36;43.71;101692.75;7977708;28;20045;-68
2021/09/03 08:05:56;;;;;;;8.05;4.97;;;;;;;26.62;43.04;101699.56;7976654;28;20036;-68
2021/09/03 08:09:46;;;;;;;8.55;5.28;;;;;;;26.63;43.26;101682.38;7977522;28;20045;-68
2021/09/03 08:13:37;;;;;;;12.32;6.20;;;;;;;26.52;42.88;101697.13;7977477;28;20708;-69
2021/09/03 08:17:27;;;;;;;10.20;6.53;;;;;;;26.25;43.33;101695.06;7975959;28;20031;-68
2021/09/03 08:21:18;;;;;;;9.27;6.40;;;;;;;25.96;43.82;101691.31;7977783;28;20030;-69
2021/09/03 08:25:09;;;;;;;11.25;6.05;;;;;;;25.66;44.21;101695.75;7976927;28;20044;-68
2021/09/03 08:29:00;;;;;;;12.57;6.90;;;;;;;25.42;44.61;101698.59;7976742;28;20041;-68
2021/09/03 08:32:50;;;;;;;12.10;6.40;;;;;;;25.18;44.60;101691.56;7978310;28;20041;-68
2021/09/03 08:36:41;;;;;;;10.00;7.22;;;;;;;25.05;44.42;101695.81;7989777;28;20037;-69
2021/09/03 08:40:32;;;;;;;11.43;7.38;;;;;;;24.92;44.46;101700.94;7982388;28;20037;-68
2021/09/03 08:44:22;;;;;;;9.02;6.75;;;;;;;24.78;44.57;101697.09;7975699;28;20035;-68
2021/09/03 08:48:17;;;;;;;9.80;7.10;;;;;;;24.68;44.60;101694.63;7976706;28;20033;-68
2021/09/03 08:52:07;;;;;;;8.27;6.43;;;;;;;24.60;44.85;101699.19;7976362;28;20112;-68
2021/09/03 08:55:58;;;;;;;15.15;7.38;;;;;;;24.49;44.50;101697.69;7976413;28;20033;-68
2021/09/03 08:59:49;;;;;;;10.18;6.43;;;;;;;24.36;44.48;101694.75;7976010;28;20049;-68
2021/09/03 09:03:45;;;;;;;10.63;7.18;;;;;;;24.27;44.74;101701.09;7975873;28;20050;-68
2021/09/03 09:07:36;;;;;;;9.90;6.87;;;;;;;24.18;45.13;101708.34;7976195;28;20025;-68
2021/09/03 09:11:30;;;;;;;8.57;6.10;;;;;;;24.10;44.81;101691.41;7975619;28;20033;-68
2021/09/03 09:15:21;;;;;;;8.90;6.70;;;;;;;24.04;44.92;101694.75;7975771;28;20492;-68
2021/09/03 09:19:11;;;;;;;9.45;6.32;;;;;;;24.02;44.92;101694.09;7975561;28;20551;-68
2021/09/03 09:23:03;;;;;;;9.40;6.43;;;;;;;24.07;44.37;101692.56;7975444;28;20042;-68
2021/09/03 09:26:55;;;;;;;9.63;6.03;;;;;;;23.95;44.46;101698.47;7975213;28;20442;-68
2021/09/03 09:30:47;;;;;;;12.27;6.68;;;;;;;23.78;44.34;101692.28;7975058;28;20041;-68
2021/09/03 09:34:40;;;;;;;8.20;5.95;;;;;;;23.69;44.65;101686.06;7974173;28;20026;-68
2021/09/03 09:38:34;;;;;;;9.73;6.50;;;;;;;23.58;44.55;101672.94;7983325;28;20036;-68
2021/09/03 09:42:30;;;;;;;9.88;6.38;;;;;;;23.50;44.85;101680.13;8006468;28;20083;-68
2021/09/03 09:46:23;;;;;;;10.00;5.50;;;;;;;23.41;44.67;101673.94;8006405;28;20036;-68
2021/09/03 09:50:23;;;;;;;10.18;6.03;;;;;;;23.34;44.60;101681.81;8007082;28;20524;-68
2021/09/03 09:54:22;;;;;;;10.23;5.78;;;;;;;23.26;44.55;101673.75;8006267;28;20124;-68
2021/09/03 09:58:15;;;;;;;9.88;6.32;;;;;;;23.17;44.17;101677.41;8006388;28;20040;-68
2021/09/03 10:02:05;;;;;;;8.65;5.43;;;;;;;23.05;44.39;101667.13;8006072;28;20041;-68
2021/09/03 10:05:56;;;;;;;9.00;5.82;;;;;;;22.97;44.26;101668.81;8006616;28;20029;-67
2021/09/03 10:09:47;;;;;;;8.90;6.00;;;;;;;22.86;44.05;101660.22;7977180;28;20049;-67
2021/09/03 10:13:38;;;;;;;7.70;5.50;;;;;;;22.81;44.10;101660.72;7989868;28;20402;-68
2021/09/03 10:17:32;;;;;;;7.95;5.93;;;;;;;22.73;43.72;101652.66;7971352;28;20021;-68
2021/09/03 10:21:25;;;;;;;8.15;5.53;;;;;;;22.68;43.84;101646.94;7983093;28;20033;-68
2021/09/03 10:25:16;;;;;;;9.30;5.03;;;;;;;22.64;43.89;101645.59;8004645;28;20068;-67
2021/09/03 10:29:26;;;;;;;10.35;5.93;;;;;;;22.60;44.24;101641.56;8006614;28;20041;-67
2021/09/03 10:33:17;;;;;;;11.48;5.68;;;;;;;22.61;44.19;101639.72;8005773;28;20718;-68
2021/09/03 10:37:14;;;;;;;7.25;4.88;;;;;;;22.61;44.34;101637.88;8004475;28;20082;-67
2021/09/03 10:41:04;;;;;;;8.30;5.10;;;;;;;22.60;44.10;101630.84;7989968;28;20037;-67
2021/09/03 10:45:01;;;;;;;7.50;5.32;;;;;;;22.62;44.07;101630.69;7999320;28;20053;-67
2021/09/03 10:48:51;;;;;;;9.05;5.32;;;;;;;22.61;44.20;101629.00;8012032;28;20552;-68
2021/09/03 10:56:56;;;;;;;6.30;4.28;;;;;;;22.59;43.93;101612.25;8011407;28;20037;-67
2021/09/03 11:00:47;;;;;;;9.55;4.40;;;;;;;22.60;43.80;101617.47;7982028;28;20044;-67
2021/09/03 11:04:46;;;;;;;8.35;4.30;;;;;;;22.57;43.73;101601.72;7978007;28;20401;-68
2021/09/03 11:08:41;;;;;;;8.52;3.95;;;;;;;22.56;43.54;101594.69;7979713;28;20567;-67
2021/09/03 11:12:32;;;;;;;6.82;3.53;;;;;;;22.60;43.43;101601.38;7978265;28;20033;-68
2021/09/03 11:16:30;;;;;;;10.35;3.63;;;;;;;22.61;43.36;101599.56;7989003;28;20104;-68
2021/09/03 11:20:22;;;;;;;5.38;3.38;;;;;;;22.62;43.44;101593.22;8010626;28;20044;-67
2021/09/03 11:24:16;;;;;;;7.47;3.92;;;;;;;22.63;43.42;101582.31;8010269;28;20557;-68
2021/09/03 11:28:06;;;;;;;12.38;4.32;;;;;;;22.64;43.39;101577.78;8010716;28;20044;-68
2021/09/03 11:32:07;;;;;;;6.10;3.45;;;;;;;22.61;42.90;101576.28;8009892;28;20025;-67
2021/09/03 11:36:02;;;;;;;6.20;3.45;;;;;;;22.61;42.64;101584.31;8010379;28;20383;-67
2021/09/03 11:39:55;;;;;;;6.53;3.53;;;;;;;22.61;42.84;101570.09;7986201;28;20694;-67
2021/09/03 11:43:46;;;;;;;6.95;3.05;;;;;;;22.64;42.70;101581.31;7978336;28;20049;-67
2021/09/03 11:47:47;;;;;;;4.15;3.03;;;;;;;22.65;42.48;101579.47;7978230;28;20037;-68
2021/09/03 11:51:38;;;;;;;6.45;3.63;;;;;;;22.66;42.60;101568.63;7978169;28;20048;-67
2021/09/03 11:55:37;;;;;;;7.50;3.28;;;;;;;22.67;42.47;101567.59;7976103;28;20033;-68
2021/09/03 11:59:54;;;;;;;6.75;3.42;;;;;;;22.64;42.32;101567.94;7978245;28;20034;-67
2021/09/03 12:03:46;;;;;;;11.77;3.78;;;;;;;22.69;42.94;101564.75;7977902;28;20152;-68
2021/09/03 12:07:37;;;;;;;4.50;2.70;;;;;;;22.72;42.53;101562.59;7975731;28;20637;-67
2021/09/03 12:11:34;;;;;;;6.47;3.08;;;;;;;22.73;42.06;101550.03;7982788;28;20037;-68
2021/09/03 12:15:26;;;;;;;3.75;2.80;;;;;;;22.75;42.71;101561.41;7986301;28;20029;-67
2021/09/03 12:19:23;;;;;;;5.53;2.75;;;;;;;22.78;42.58;101545.03;7977519;28;20060;-68
2021/09/03 12:23:14;;;;;;;5.28;2.88;;;;;;;22.78;42.50;101545.03;7977023;28;20041;-68
2021/09/03 12:27:11;;;;;;;5.72;2.97;;;;;;;22.80;42.46;101532.31;7977116;28;20033;-68
2021/09/03 12:31:07;;;;;;;8.07;3.55;;;;;;;22.80;41.81;101540.34;7977170;28;20560;-68
2021/09/03 12:34:58;;;;;;;5.38;4.07;;;;;;;22.79;41.86;101536.81;7976809;28;20028;-67
2021/09/03 12:38:53;;;;;;;8.13;3.83;;;;;;;22.76;42.11;101537.16;7988883;28;20123;-68
2021/09/03 12:42:43;;;;;;;5.13;2.90;;;;;;;22.76;42.00;101526.44;8008110;28;20029;-68
2021/09/03 12:46:45;;;;;;;6.03;3.08;;;;;;;22.76;41.75;101525.59;8007899;28;20037;-68
2021/09/03 12:50:35;;;;;;;4.85;3.15;;;;;;;22.75;41.75;101524.75;7997146;28;20040;-68
2021/09/03 12:54:26;;;;;;;3.97;2.90;;;;;;;22.75;41.78;101519.41;7993041;28;20037;-68
2021/09/03 12:58:17;;;;;;;5.03;3.40;;;;;;;22.76;41.67;101517.56;7975874;28;20037;-68
2021/09/03 13:02:08;;;;;;;4.32;3.40;;;;;;;22.77;41.55;101511.22;7975660;28;20045;-68
2021/09/03 13:05:59;;;;;;;3.85;2.92;;;;;;;22.77;41.88;101512.06;7975874;28;20067;-68
2021/09/03 13:09:49;;;;;;;5.25;2.67;;;;;;;22.75;41.69;101508.69;7975703;28;20116;-67
2021/09/03 13:13:41;;;;;;;3.80;2.78;;;;;;;22.77;41.10;101500.50;7975659;28;20037;-68
2021/09/03 13:17:33;;;;;;;4.50;2.80;;;;;;;22.75;41.22;101495.28;7975410;28;20478;-68
2021/09/03 13:21:23;;;;;;;3.40;2.53;;;;;;;22.77;41.25;101500.50;7975417;28;20052;-68
2021/09/03 13:25:14;;;;;;;3.95;2.60;;;;;;;22.76;41.31;101494.31;7973924;28;20048;-68
2021/09/03 13:29:05;;;;;;;3.47;2.40;;;;;;;22.74;41.13;101485.63;7975390;28;20689;-68
2021/09/03 13:32:56;;;;;;;4.22;2.75;;;;;;;22.76;40.98;101482.75;7975097;28;20103;-68
2021/09/03 13:36:47;;;;;;;3.00;2.25;;;;;;;22.77;41.12;101479.06;7975014;28;20593;-68
2021/09/03 13:40:38;;;;;;;3.83;2.58;;;;;;;22.79;40.91;101482.41;7991952;28;20102;-68
2021/09/03 13:44:29;;;;;;;4.32;2.50;;;;;;;22.78;40.99;101472.72;8006325;28;20033;-68
2021/09/03 13:48:19;;;;;;;5.50;3.50;;;;;;;22.78;40.87;101462.00;8006361;28;20136;-68
2021/09/03 13:52:10;;;;;;;3.95;2.75;;;;;;;22.80;40.68;101468.03;8006336;28;20110;-68
2021/09/03 13:56:02;;;;;;;3.35;2.33;;;;;;;22.75;40.56;101452.44;8006470;28;20119;-68
2021/09/03 13:59:53;;;;;;;3.97;2.70;;;;;;;22.82;40.43;101456.16;8006404;28;20033;-67
2021/09/03 14:03:44;;;;;;;2.80;2.05;;;;;;;22.81;40.63;101446.44;8006019;28;20041;-67
2021/09/03 14:07:34;;;;;;;5.03;3.22;;;;;;;22.83;40.82;101436.38;7996819;28;20044;-67
2021/09/03 14:11:25;;;;;;;3.42;2.58;;;;;;;22.82;40.58;101434.72;7995714;28;20053;-67
2021/09/03 14:15:16;;;;;;;4.22;2.72;;;;;;;22.84;40.68;101432.69;7989703;28;20025;-67
2021/09/03 14:19:06;;;;;;;4.53;2.97;;;;;;;22.84;40.71;101430.03;7989399;28;20121;-67
2021/09/03 14:22:57;;;;;;;4.55;2.88;;;;;;;22.85;40.42;101426.34;8012044;28;20044;-67
2021/09/03 14:26:47;;;;;;;4.10;2.67;;;;;;;22.84;40.10;101416.63;8012509;28;20033;-67
2021/09/03 14:30:38;;;;;;;4.65;2.63;;;;;;;22.84;40.32;101416.63;8011654;28;20029;-68
2021/09/03 14:34:29;;;;;;;4.68;3.00;;;;;;;22.83;39.81;101414.13;8011806;28;20045;-67
2021/09/03 14:38:20;;;;;;;2.90;2.40;;;;;;;22.83;39.82;101406.09;8000952;28;20094;-68
2021/09/03 14:42:10;;;;;;;5.22;2.78;;;;;;;22.78;39.90;101400.41;7980181;28;20047;-67
2021/09/03 14:46:01;;;;;;;3.00;2.22;;;;;;;22.77;39.36;101402.25;7980018;28;20051;-67
2021/09/03 14:49:51;;;;;;;4.18;2.55;;;;;;;22.81;39.58;101405.41;7979917;28;20048;-67
2021/09/03 14:53:43;;;;;;;4.40;3.00;;;;;;;22.77;39.39;101398.72;7979751;28;20063;-67
2021/09/03 14:57:34;;;;;;;5.45;2.95;;;;;;;22.82;39.11;101397.22;7979624;28;20033;-67
2021/09/03 15:01:24;;;;;;;15.52;2.72;;;;;;;22.82;39.08;101399.91;7979596;28;20086;-67
2021/09/03 15:05:15;;;;;;;3.33;2.35;;;;;;;22.82;39.54;101397.22;7984314;28;20713;-68
2021/09/03 15:09:10;;;;;;;3.40;2.50;;;;;;;22.81;39.48;101395.53;7989726;28;20033;-68
2021/09/03 15:13:00;;;;;;;3.88;2.70;;;;;;;22.80;39.34;101393.88;8006374;28;20041;-67
2021/09/03 15:16:51;;;;;;;3.35;2.38;;;;;;;22.82;39.33;101385.66;7979112;28;20032;-68
2021/09/03 15:20:42;;;;;;;3.40;2.50;;;;;;;22.80;39.20;101380.47;7979260;28;20114;-67
2021/09/03 15:24:32;;;;;;;4.53;2.78;;;;;;;22.78;39.29;101384.34;7978962;28;20044;-67
2021/09/03 15:28:23;;;;;;;3.47;2.45;;;;;;;22.77;39.26;101377.31;7979094;28;20379;-67
2021/09/03 15:32:14;;;;;;;3.28;2.15;;;;;;;22.78;39.14;101378.97;7977343;28;20053;-67
2021/09/03 15:36:04;;;;;;;3.15;2.45;;;;;;;22.75;39.21;101372.09;7978677;28;20033;-67
2021/09/03 15:39:55;;;;;;;4.45;2.55;;;;;;;22.74;38.99;101372.28;7985605;28;20444;-67
2021/09/03 15:43:46;;;;;;;5.18;2.80;;;;;;;22.71;39.21;101368.09;8010117;28;20474;-68
2021/09/03 15:47:36;;;;;;;7.70;2.92;;;;;;;22.70;39.03;101369.13;8009631;28;20039;-67
2021/09/03 15:51:27;;;;;;;3.47;2.47;;;;;;;22.67;39.05;101368.59;8009877;28;20087;-67
2021/09/03 15:55:17;;;;;;;5.43;3.00;;;;;;;22.62;39.25;101355.72;8009787;28;20051;-67
2021/09/03 15:59:08;;;;;;;3.78;2.70;;;;;;;22.62;39.45;101366.44;8003148;28;20042;-67
2021/09/03 16:02:59;;;;;;;4.60;2.78;;;;;;;22.61;39.45;101358.56;7976332;28;20658;-67
2021/09/03 16:06:49;;;;;;;6.28;2.97;;;;;;;22.59;39.63;101352.53;7978089;28;20116;-67
2021/09/03 16:10:40;;;;;;;4.00;2.85;;;;;;;22.57;39.73;101354.56;7977580;28;20033;-68
2021/09/03 16:14:33;;;;;;;5.80;2.70;;;;;;;22.52;39.69;101339.00;7977248;28;20037;-68
2021/09/03 16:18:23;;;;;;;4.07;2.75;;;;;;;22.53;39.99;101340.66;7977142;28;20142;-67
2021/09/03 16:22:14;;;;;;;4.80;3.22;;;;;;;22.51;40.13;101342.66;7977740;28;20124;-68
2021/09/03 16:26:06;;;;;;;4.32;2.75;;;;;;;22.50;40.16;101349.03;7977238;28;20071;-67
2021/09/03 16:29:56;;;;;;;4.15;3.05;;;;;;;22.48;40.21;101340.34;7976334;28;20127;-67
2021/09/03 16:33:47;;;;;;;7.53;3.33;;;;;;;22.45;39.88;101337.97;7976484;28;20041;-67
2021/09/03 16:37:38;;;;;;;4.82;3.33;;;;;;;22.42;40.16;101335.59;7986698;28;20025;-67
2021/09/03 16:41:29;;;;;;;5.65;3.78;;;;;;;22.39;40.30;101339.47;7985625;28;20674;-67
2021/09/03 16:45:19;;;;;;;4.60;3.13;;;;;;;22.34;40.58;101323.06;8006828;28;20552;-68
2021/09/03 16:49:10;;;;;;;4.70;2.75;;;;;;;22.35;40.44;101334.59;8007915;28;20036;-67
2021/09/03 16:53:00;;;;;;;7.03;3.33;;;;;;;22.29;40.49;101324.59;8007753;28;20047;-68
2021/09/03 16:56:51;;;;;;;6.72;3.00;;;;;;;22.29;40.76;101333.44;8007885;28;20089;-67
2021/09/03 17:00:43;;;;;;;5.72;3.45;;;;;;;22.26;40.65;101336.44;8007934;28;20094;-67
2021/09/03 17:04:34;;;;;;;4.22;3.22;;;;;;;22.21;41.07;101332.63;8006272;28;20045;-67
2021/09/03 17:08:24;;;;;;;6.20;3.00;;;;;;;22.19;41.22;101334.59;8007720;28;20401;-67
2021/09/03 17:12:15;;;;;;;3.30;2.47;;;;;;;22.14;41.31;101328.91;8007639;28;20025;-67
2021/09/03 17:16:07;;;;;;;4.65;3.20;;;;;;;22.04;41.97;101321.88;7980158;28;20522;-68
2021/09/03 17:19:57;;;;;;;4.45;2.90;;;;;;;22.03;42.00;101327.41;7974120;28;20045;-67
2021/09/03 17:23:48;;;;;;;5.18;3.25;;;;;;;21.96;42.33;101319.19;7975505;28;20037;-67
2021/09/03 17:27:39;;;;;;;5.22;3.53;;;;;;;21.89;42.09;101323.53;7975353;28;20532;-68
2021/09/03 17:31:29;;;;;;;7.80;3.05;;;;;;;21.81;42.46;101323.47;7975146;28;20739;-68
2021/09/03 17:35:21;;;;;;;4.57;3.08;;;;;;;21.74;42.67;101318.94;7975270;28;20671;-68
2021/09/03 17:39:11;;;;;;;5.47;2.80;;;;;;;21.61;43.02;101308.72;7988718;28;20120;-68
2021/09/03 17:43:02;;;;;;;3.78;2.97;;;;;;;21.56;43.12;101321.72;8006705;28;20341;-68
2021/09/03 17:46:53;;;;;;;7.35;3.03;;;;;;;21.43;43.16;101314.16;7998823;28;20089;-68
2021/09/03 17:50:44;;;;;;;4.72;2.97;;;;;;;21.34;43.38;101317.00;7987968;28;20037;-67
2021/09/03 17:54:35;;;;;;;5.78;3.10;;;;;;;21.29;43.38;101320.13;7987436;28;20037;-67
2021/09/03 17:58:26;;;;;;;8.30;3.42;;;;;;;21.23;43.29;101322.59;7962404;28;20401;-68